Pacific - Georgia Basin: Past 24 Hour Conditions

 

Vancouver Int'l Airport

09:00 PM PST 28 November 2014
This table is a summary of hourly weather conditions for the past 24 hours.
Date / Time
(PST)
Wind(knots) Conditions Visibility(km) Pressure(kPa) Air tempC) Relative humidity(%) Dew pointC)
28 November 2014
21:00 W 15 gust 20 Mostly Cloudy 24 99.8 3 78 -1
20:00 W 19 Mostly Cloudy 24 99.8 3 72 -1
19:00 WNW 15 Cloudy 24 99.8 4 72 -1
18:00 WNW 15 gust 21 Light Rain 19 99.7 4 75 0
17:00 WNW 14 gust 21 Cloudy 32 99.7 5 69 0
16:00 W 17 gust 22 Partly Cloudy 48 99.7 5 67 -1
15:00 WNW 18 gust 24 Mainly Sunny 48 99.8 6 68 0
14:00 WNW 18 Partly Cloudy 48 99.8 6 68 1
13:00 W 17 gust 24 Partly Cloudy 48 99.9 7 66 1
12:00 W 15 gust 20 Mostly Cloudy 48 99.9 7 69 1
11:00 WNW 19 gust 24 Partly Cloudy 48 100.0 7 64 0
10:00 WNW 20 gust 27 Partly Cloudy 48 100.0 6 69 1
9:00 W 24 gust 31 Mostly Cloudy 48 100.0 6 68 1
8:00 W 23 gust 32 Mostly Cloudy 48 100.0 6 74 2
7:00 W 23 gust 30 Mostly Cloudy 24 99.9 7 74 2
6:00 WNW 24 gust 31 Mostly Cloudy 24 99.9 7 77 3
5:00 WNW 21 gust 29 Light Rain 19 100.0 7 87 5
4:00 W 24 gust 31 Light Rain 19 100.0 7 89 5
3:00 WNW 23 gust 32 Light Rain 16 100.0 7 93 6
2:00 W 14 Light Rain 19 100.0 8 96 8
1:00 S 13 Mostly Cloudy 24 99.9 13 82 10
0:00 SSE 17 gust 23 Mostly Cloudy 24 99.9 12 86 10
27 November 2014
23:00 SSE 15 gust 22 Mostly Cloudy 24 100.0 12 85 10
22:00 SSE 13 gust 20 Mostly Cloudy 24 100.1 13 81 10
21:00 SSE 13 gust 20 Mostly Cloudy 24 100.1 12 86 10
 
Map of Pacific - Georgia Basin marine weather areas Tsawwassen Ferry Terminal Sentry Shoal - 46131 Halibut Bank - 46146 La Perouse Bank - 46206 Discovery Island Esquimalt Harbour Kelp Reefs Malahat Race Rocks Lightstation Saturna Island Sheringham Point University of Victoria Victoria Gonzales Victoria Int'l Airport Ballenas Islands Campbell River Airport Comox Airport Entrance Island Fanny Island Nanaimo Airport Sisters Islets Estevan Point Tofino Airport Grief Point Powell River Airport Sechelt Point Atkinson Sand Heads Lightstation Vancouver Harbour Vancouver Int'l Airport West Vancouver Port Alberni Howe Sound - Pam Rocks Squamish Airport